sensor_id;sensor_type;location;lat;lon;timestamp;pressure;altitude;pressure_sealevel;temperature;humidity
41202;BME280;26936;50.524;8.684;2023-01-27T00:00:02;99815.09;;;1.19;100.00
41202;BME280;26936;50.524;8.684;2023-01-27T00:02:27;99812.69;;;1.21;100.00
41202;BME280;26936;50.524;8.684;2023-01-27T00:04:53;99811.53;;;1.22;100.00
41202;BME280;26936;50.524;8.684;2023-01-27T00:07:18;99809.16;;;1.20;100.00
41202;BME280;26936;50.524;8.684;2023-01-27T00:09:43;99810.78;;;1.25;100.00
41202;BME280;26936;50.524;8.684;2023-01-27T00:12:17;99803.25;;;1.25;100.00
41202;BME280;26936;50.524;8.684;2023-01-27T00:15:01;99807.63;;;1.26;100.00
41202;BME280;26936;50.524;8.684;2023-01-27T00:17:28;99806.00;;;1.22;100.00
41202;BME280;26936;50.524;8.684;2023-01-27T00:19:53;99801.22;;;1.22;100.00
41202;BME280;26936;50.524;8.684;2023-01-27T00:22:18;99799.63;;;1.21;100.00
41202;BME280;26936;50.524;8.684;2023-01-27T00:25:02;99804.84;;;1.26;100.00
41202;BME280;26936;50.524;8.684;2023-01-27T00:27:27;99804.09;;;1.29;100.00
41202;BME280;26936;50.524;8.684;2023-01-27T00:29:53;99809.22;;;1.27;100.00
41202;BME280;26936;50.524;8.684;2023-01-27T00:32:18;99806.03;;;1.29;100.00
41202;BME280;26936;50.524;8.684;2023-01-27T00:35:02;99808.47;;;1.30;100.00
41202;BME280;26936;50.524;8.684;2023-01-27T00:37:29;99808.88;;;1.32;100.00
41202;BME280;26936;50.524;8.684;2023-01-27T00:39:54;99804.09;;;1.29;100.00
41202;BME280;26936;50.524;8.684;2023-01-27T00:42:19;99804.53;;;1.35;100.00
41202;BME280;26936;50.524;8.684;2023-01-27T00:44:45;99802.94;;;1.30;100.00
41202;BME280;26936;50.524;8.684;2023-01-27T00:47:30;99793.44;;;1.35;100.00
41202;BME280;26936;50.524;8.684;2023-01-27T00:49:55;99802.56;;;1.35;100.00
41202;BME280;26936;50.524;8.684;2023-01-27T00:52:20;99805.75;;;1.37;100.00
41202;BME280;26936;50.524;8.684;2023-01-27T00:54:46;99801.34;;;1.33;100.00
41202;BME280;26936;50.524;8.684;2023-01-27T00:57:11;99802.56;;;1.35;100.00
41202;BME280;26936;50.524;8.684;2023-01-27T00:59:36;99801.34;;;1.33;100.00
41202;BME280;26936;50.524;8.684;2023-01-27T01:02:01;99801.34;;;1.33;100.00
41202;BME280;26936;50.524;8.684;2023-01-27T01:04:26;99806.97;;;1.40;100.00
41202;BME280;26936;50.524;8.684;2023-01-27T01:06:52;99810.91;;;1.39;100.00
41202;BME280;26936;50.524;8.684;2023-01-27T01:09:17;99808.09;;;1.35;100.00
41202;BME280;26936;50.524;8.684;2023-01-27T01:11:42;99805.78;;;1.41;100.00
41202;BME280;26936;50.524;8.684;2023-01-27T01:14:07;99810.53;;;1.40;100.00
41202;BME280;26936;50.524;8.684;2023-01-27T01:16:33;99816.06;;;1.40;100.00
41202;BME280;26936;50.524;8.684;2023-01-27T01:18:58;99808.56;;;1.41;100.00
41202;BME280;26936;50.524;8.684;2023-01-27T01:21:23;99820.84;;;1.40;100.00
41202;BME280;26936;50.524;8.684;2023-01-27T01:23:49;99808.91;;;1.36;100.00
41202;BME280;26936;50.524;8.684;2023-01-27T01:26:15;99814.03;;;1.34;100.00
41202;BME280;26936;50.524;8.684;2023-01-27T01:28:42;99824.75;;;1.35;100.00
41202;BME280;26936;50.524;8.684;2023-01-27T01:31:13;99814.41;;;1.32;100.00
41202;BME280;26936;50.524;8.684;2023-01-27T01:33:39;99823.16;;;1.34;100.00
41202;BME280;26936;50.524;8.684;2023-01-27T01:38:30;99816.81;;;1.34;100.00
41202;BME280;26936;50.524;8.684;2023-01-27T01:40:55;99818.75;;;1.30;100.00
41202;BME280;26936;50.524;8.684;2023-01-27T01:43:20;99819.19;;;1.32;100.00
41202;BME280;26936;50.524;8.684;2023-01-27T01:45:55;99824.69;;;1.28;100.00
41202;BME280;26936;50.524;8.684;2023-01-27T01:48:24;99822.69;;;1.29;100.00
41202;BME280;26936;50.524;8.684;2023-01-27T01:51:04;99828.28;;;1.32;100.00
41202;BME280;26936;50.524;8.684;2023-01-27T01:53:37;99820.72;;;1.29;100.00
41202;BME280;26936;50.524;8.684;2023-01-27T01:56:12;99819.19;;;1.35;100.00
41202;BME280;26936;50.524;8.684;2023-01-27T01:58:39;99832.34;;;1.38;100.00
41202;BME280;26936;50.524;8.684;2023-01-27T02:01:05;99825.13;;;1.34;100.00
41202;BME280;26936;50.524;8.684;2023-01-27T02:03:32;99822.41;;;1.37;100.00
41202;BME280;26936;50.524;8.684;2023-01-27T02:05:58;99821.97;;;1.35;100.00
41202;BME280;26936;50.524;8.684;2023-01-27T02:08:28;99829.56;;;1.38;100.00
41202;BME280;26936;50.524;8.684;2023-01-27T02:10:55;99829.56;;;1.38;100.00
41202;BME280;26936;50.524;8.684;2023-01-27T02:13:21;99826.75;;;1.35;100.00
41202;BME280;26936;50.524;8.684;2023-01-27T02:15:46;99833.91;;;1.39;100.00
41202;BME280;26936;50.524;8.684;2023-01-27T02:18:12;99829.19;;;1.40;100.00
41202;BME280;26936;50.524;8.684;2023-01-27T02:20:46;99820.44;;;1.38;100.00
41202;BME280;26936;50.524;8.684;2023-01-27T02:28:53;99822.44;;;1.41;100.00
41202;BME280;26936;50.524;8.684;2023-01-27T02:31:19;99820.50;;;1.45;100.00
41202;BME280;26936;50.524;8.684;2023-01-27T02:33:44;99826.06;;;1.45;100.00
41202;BME280;26936;50.524;8.684;2023-01-27T02:36:12;99816.50;;;1.42;100.00
41202;BME280;26936;50.524;8.684;2023-01-27T02:38:48;99818.47;;;1.42;100.00
41202;BME280;26936;50.524;8.684;2023-01-27T02:41:28;99825.25;;;1.45;100.00
41202;BME280;26936;50.524;8.684;2023-01-27T02:43:56;99822.47;;;1.45;100.00
41202;BME280;26936;50.524;8.684;2023-01-27T02:46:22;99818.91;;;1.44;100.00
41202;BME280;26936;50.524;8.684;2023-01-27T02:48:47;99817.72;;;1.45;100.00
41202;BME280;26936;50.524;8.684;2023-01-27T02:51:12;99824.50;;;1.48;100.00
41202;BME280;26936;50.524;8.684;2023-01-27T02:53:38;99826.06;;;1.49;100.00
41202;BME280;26936;50.524;8.684;2023-01-27T02:56:03;99812.63;;;1.51;100.00
41202;BME280;26936;50.524;8.684;2023-01-27T02:58:29;99821.31;;;1.49;100.00
41202;BME280;26936;50.524;8.684;2023-01-27T03:00:54;99830.47;;;1.50;100.00
41202;BME280;26936;50.524;8.684;2023-01-27T03:03:19;99830.47;;;1.50;100.00
41202;BME280;26936;50.524;8.684;2023-01-27T03:05:45;99827.25;;;1.48;100.00
41202;BME280;26936;50.524;8.684;2023-01-27T03:08:10;99838.03;;;1.53;100.00
41202;BME280;26936;50.524;8.684;2023-01-27T03:10:35;99836.00;;;1.50;100.00
41202;BME280;26936;50.524;8.684;2023-01-27T03:13:01;99834.03;;;1.50;100.00
41202;BME280;26936;50.524;8.684;2023-01-27T03:15:26;99834.44;;;1.52;100.00
41202;BME280;26936;50.524;8.684;2023-01-27T03:18:10;99843.91;;;1.48;100.00
41202;BME280;26936;50.524;8.684;2023-01-27T03:20:47;99840.72;;;1.46;100.00
41202;BME280;26936;50.524;8.684;2023-01-27T03:23:15;99840.75;;;1.49;100.00
41202;BME280;26936;50.524;8.684;2023-01-27T03:25:45;99845.91;;;1.51;100.00
41202;BME280;26936;50.524;8.684;2023-01-27T03:28:11;99853.81;;;1.49;100.00
41202;BME280;26936;50.524;8.684;2023-01-27T03:30:37;99847.13;;;1.50;100.00
41202;BME280;26936;50.524;8.684;2023-01-27T03:33:03;99845.91;;;1.51;100.00
41202;BME280;26936;50.524;8.684;2023-01-27T03:35:29;99852.28;;;1.51;100.00
41202;BME280;26936;50.524;8.684;2023-01-27T03:38:03;99843.56;;;1.53;100.00
41202;BME280;26936;50.524;8.684;2023-01-27T03:40:47;99843.53;;;1.49;100.00
41202;BME280;26936;50.524;8.684;2023-01-27T03:43:31;99847.94;;;1.54;100.00
41202;BME280;26936;50.524;8.684;2023-01-27T03:46:15;99845.16;;;1.50;100.00
41202;BME280;26936;50.524;8.684;2023-01-27T03:48:49;99846.34;;;1.53;100.00
41202;BME280;26936;50.524;8.684;2023-01-27T03:51:16;99847.53;;;1.52;100.00
41202;BME280;26936;50.524;8.684;2023-01-27T03:53:41;99849.88;;;1.50;100.00
41202;BME280;26936;50.524;8.684;2023-01-27T03:56:07;99851.44;;;1.47;100.00
41202;BME280;26936;50.524;8.684;2023-01-27T03:58:35;99846.31;;;1.49;100.00
41202;BME280;26936;50.524;8.684;2023-01-27T04:01:06;99848.69;;;1.51;100.00
41202;BME280;26936;50.524;8.684;2023-01-27T04:03:36;99846.78;;;1.55;100.00
41202;BME280;26936;50.524;8.684;2023-01-27T04:06:22;99849.53;;;1.55;100.00
41202;BME280;26936;50.524;8.684;2023-01-27T04:09:08;99847.91;;;1.50;100.00
41202;BME280;26936;50.524;8.684;2023-01-27T04:11:34;99850.22;;;1.45;100.00
41202;BME280;26936;50.524;8.684;2023-01-27T04:14:18;99844.69;;;1.45;100.00
41202;BME280;26936;50.524;8.684;2023-01-27T04:16:44;99846.72;;;1.51;100.00
41202;BME280;26936;50.524;8.684;2023-01-27T04:19:11;99845.97;;;1.54;100.00
41202;BME280;26936;50.524;8.684;2023-01-27T04:21:36;99844.00;;;1.55;100.00
41202;BME280;26936;50.524;8.684;2023-01-27T04:24:03;99842.75;;;1.52;100.00
41202;BME280;26936;50.524;8.684;2023-01-27T04:26:28;99841.59;;;1.53;100.00
41202;BME280;26936;50.524;8.684;2023-01-27T04:28:58;99845.59;;;1.56;100.00
41202;BME280;26936;50.524;8.684;2023-01-27T04:31:24;99841.66;;;1.57;100.00
41202;BME280;26936;50.524;8.684;2023-01-27T04:33:49;99849.97;;;1.60;100.00
41202;BME280;26936;50.524;8.684;2023-01-27T04:36:14;99856.72;;;1.59;100.00
41202;BME280;26936;50.524;8.684;2023-01-27T04:38:40;99858.72;;;1.62;100.00
41202;BME280;26936;50.524;8.684;2023-01-27T04:41:05;99855.97;;;1.62;100.00
41202;BME280;26936;50.524;8.684;2023-01-27T04:43:30;99855.53;;;1.60;100.00
41202;BME280;26936;50.524;8.684;2023-01-27T04:45:56;99856.34;;;1.61;100.00
41202;BME280;26936;50.524;8.684;2023-01-27T04:48:21;99857.09;;;1.58;100.00
41202;BME280;26936;50.524;8.684;2023-01-27T04:50:46;99867.44;;;1.61;100.00
41202;BME280;26936;50.524;8.684;2023-01-27T04:53:11;99870.22;;;1.61;100.00
41202;BME280;26936;50.524;8.684;2023-01-27T04:55:37;99875.78;;;1.61;100.00
41202;BME280;26936;50.524;8.684;2023-01-27T04:58:03;99867.88;;;1.63;100.00
41202;BME280;26936;50.524;8.684;2023-01-27T05:00:29;99866.69;;;1.64;100.00
41202;BME280;26936;50.524;8.684;2023-01-27T05:02:54;99861.56;;;1.66;100.00
41202;BME280;26936;50.524;8.684;2023-01-27T05:05:19;99868.31;;;1.68;100.00
41202;BME280;26936;50.524;8.684;2023-01-27T05:07:44;99871.06;;;1.68;100.00
41202;BME280;26936;50.524;8.684;2023-01-27T05:10:10;99868.31;;;1.68;100.00
41202;BME280;26936;50.524;8.684;2023-01-27T05:12:35;99869.56;;;1.74;100.00
41202;BME280;26936;50.524;8.684;2023-01-27T05:15:01;99866.41;;;1.76;100.00
41202;BME280;26936;50.524;8.684;2023-01-27T05:17:30;99871.16;;;1.75;100.00
41202;BME280;26936;50.524;8.684;2023-01-27T05:19:56;99868.81;;;1.77;100.00
41202;BME280;26936;50.524;8.684;2023-01-27T05:22:21;99872.78;;;1.76;100.00
41202;BME280;26936;50.524;8.684;2023-01-27T05:24:46;99872.72;;;1.73;100.00
41202;BME280;26936;50.524;8.684;2023-01-27T05:27:11;99870.00;;;1.76;100.00
41202;BME280;26936;50.524;8.684;2023-01-27T05:29:37;99879.88;;;1.74;100.00
41202;BME280;26936;50.524;8.684;2023-01-27T05:32:02;99885.09;;;1.79;100.00
41202;BME280;26936;50.524;8.684;2023-01-27T05:34:27;99886.28;;;1.81;100.00
41202;BME280;26936;50.524;8.684;2023-01-27T05:36:52;99885.84;;;1.76;100.00
41202;BME280;26936;50.524;8.684;2023-01-27T05:39:18;99888.66;;;1.79;100.00
41202;BME280;26936;50.524;8.684;2023-01-27T05:41:43;99877.56;;;1.79;100.00
41202;BME280;26936;50.524;8.684;2023-01-27T05:44:11;99889.88;;;1.82;100.00
41202;BME280;26936;50.524;8.684;2023-01-27T05:46:38;99887.47;;;1.80;100.00
41202;BME280;26936;50.524;8.684;2023-01-27T05:49:04;99885.50;;;1.81;100.00
41202;BME280;26936;50.524;8.684;2023-01-27T05:51:33;99892.22;;;1.80;100.00
41202;BME280;26936;50.524;8.684;2023-01-27T05:53:59;99890.63;;;1.79;100.00
41202;BME280;26936;50.524;8.684;2023-01-27T05:56:25;99902.94;;;1.81;100.00
41202;BME280;26936;50.524;8.684;2023-01-27T05:58:52;99903.31;;;1.80;100.00
41202;BME280;26936;50.524;8.684;2023-01-27T06:01:20;99909.69;;;1.80;100.00
41202;BME280;26936;50.524;8.684;2023-01-27T06:03:46;99904.94;;;1.81;100.00
41202;BME280;26936;50.524;8.684;2023-01-27T06:06:14;99902.16;;;1.81;100.00
41202;BME280;26936;50.524;8.684;2023-01-27T06:08:40;99905.72;;;1.78;100.00
41202;BME280;26936;50.524;8.684;2023-01-27T06:11:06;99901.41;;;1.84;100.00
41202;BME280;26936;50.524;8.684;2023-01-27T06:13:32;99906.53;;;1.82;100.00
41202;BME280;26936;50.524;8.684;2023-01-27T06:16:06;99901.78;;;1.82;100.00
41202;BME280;26936;50.524;8.684;2023-01-27T06:18:31;99907.34;;;1.82;100.00
41202;BME280;26936;50.524;8.684;2023-01-27T06:21:00;99906.91;;;1.80;100.00
41202;BME280;26936;50.524;8.684;2023-01-27T06:23:27;99904.59;;;1.86;100.00
41202;BME280;26936;50.524;8.684;2023-01-27T06:25:53;99915.66;;;1.82;100.00
41202;BME280;26936;50.524;8.684;2023-01-27T06:28:19;99916.09;;;1.88;100.00
41202;BME280;26936;50.524;8.684;2023-01-27T06:30:45;99917.28;;;1.87;100.00
41202;BME280;26936;50.524;8.684;2023-01-27T06:33:11;99918.09;;;1.87;100.00
41202;BME280;26936;50.524;8.684;2023-01-27T06:35:37;99913.78;;;1.93;100.00
41202;BME280;26936;50.524;8.684;2023-01-27T06:38:04;99919.69;;;1.88;100.00
41202;BME280;26936;50.524;8.684;2023-01-27T06:40:31;99920.94;;;1.94;100.00
41202;BME280;26936;50.524;8.684;2023-01-27T06:42:57;99925.28;;;1.92;100.00
41202;BME280;26936;50.524;8.684;2023-01-27T06:45:22;99922.53;;;1.95;100.00
41202;BME280;26936;50.524;8.684;2023-01-27T06:47:57;99930.88;;;1.95;100.00
41202;BME280;26936;50.524;8.684;2023-01-27T06:50:24;99930.50;;;1.97;100.00
41202;BME280;26936;50.524;8.684;2023-01-27T06:52:50;99930.88;;;1.95;100.00
41202;BME280;26936;50.524;8.684;2023-01-27T06:55:16;99931.28;;;1.97;100.00
41202;BME280;26936;50.524;8.684;2023-01-27T06:57:41;99939.25;;;1.99;100.00
41202;BME280;26936;50.524;8.684;2023-01-27T07:00:07;99935.28;;;2.00;100.00
41202;BME280;26936;50.524;8.684;2023-01-27T07:02:33;99930.53;;;2.00;100.00
41202;BME280;26936;50.524;8.684;2023-01-27T07:04:58;99931.72;;;2.03;100.00
41202;BME280;26936;50.524;8.684;2023-01-27T07:07:23;99936.84;;;1.97;100.00
41202;BME280;26936;50.524;8.684;2023-01-27T07:09:49;99931.28;;;1.97;100.00
41202;BME280;26936;50.524;8.684;2023-01-27T07:12:14;99936.84;;;2.01;100.00
41202;BME280;26936;50.524;8.684;2023-01-27T07:14:39;99933.31;;;2.00;100.00
41202;BME280;26936;50.524;8.684;2023-01-27T07:17:06;99940.88;;;2.03;100.00
41202;BME280;26936;50.524;8.684;2023-01-27T07:19:31;99940.97;;;2.14;100.00
41202;BME280;26936;50.524;8.684;2023-01-27T07:21:57;99947.31;;;2.14;100.00
41202;BME280;26936;50.524;8.684;2023-01-27T07:24:22;99943.34;;;2.12;100.00
41202;BME280;26936;50.524;8.684;2023-01-27T07:26:47;99944.53;;;2.14;100.00
41202;BME280;26936;50.524;8.684;2023-01-27T07:29:13;99948.13;;;2.15;100.00
41202;BME280;26936;50.524;8.684;2023-01-27T07:31:38;99952.16;;;2.21;100.00
41202;BME280;26936;50.524;8.684;2023-01-27T07:34:03;99948.56;;;2.20;100.00
41202;BME280;26936;50.524;8.684;2023-01-27T07:36:29;99954.91;;;2.21;100.00
41202;BME280;26936;50.524;8.684;2023-01-27T07:38:54;99948.19;;;2.22;100.00
41202;BME280;26936;50.524;8.684;2023-01-27T07:41:20;99946.19;;;2.22;100.00
41202;BME280;26936;50.524;8.684;2023-01-27T07:43:47;99945.03;;;2.23;100.00
41202;BME280;26936;50.524;8.684;2023-01-27T07:46:12;99948.97;;;2.22;100.00
41202;BME280;26936;50.524;8.684;2023-01-27T07:48:37;99945.81;;;2.24;100.00
41202;BME280;26936;50.524;8.684;2023-01-27T07:51:02;99962.09;;;2.25;100.00
41202;BME280;26936;50.524;8.684;2023-01-27T07:53:28;99956.16;;;2.23;100.00
41202;BME280;26936;50.524;8.684;2023-01-27T07:55:53;99959.31;;;2.25;100.00
41202;BME280;26936;50.524;8.684;2023-01-27T07:58:18;99961.78;;;2.34;100.00
41202;BME280;26936;50.524;8.684;2023-01-27T08:00:44;99956.25;;;2.37;100.00
41202;BME280;26936;50.524;8.684;2023-01-27T08:03:20;99964.91;;;2.29;100.00
41202;BME280;26936;50.524;8.684;2023-01-27T08:05:46;99963.38;;;2.31;100.00
41202;BME280;26936;50.524;8.684;2023-01-27T08:08:11;99974.13;;;2.36;100.00
41202;BME280;26936;50.524;8.684;2023-01-27T08:10:36;99974.53;;;2.35;100.00
41202;BME280;26936;50.524;8.684;2023-01-27T08:13:02;99979.69;;;2.36;100.00
41202;BME280;26936;50.524;8.684;2023-01-27T08:15:27;99975.34;;;2.39;100.00
41202;BME280;26936;50.524;8.684;2023-01-27T08:17:56;99984.84;;;2.34;100.00
41202;BME280;26936;50.524;8.684;2023-01-27T08:20:23;99980.91;;;2.39;100.00
41202;BME280;26936;50.524;8.684;2023-01-27T08:22:49;99990.78;;;2.33;100.00
41202;BME280;26936;50.524;8.684;2023-01-27T08:25:14;99998.31;;;2.32;100.00
41202;BME280;26936;50.524;8.684;2023-01-27T08:27:39;99992.75;;;2.32;100.00
41202;BME280;26936;50.524;8.684;2023-01-27T08:30:05;100002.31;;;2.38;100.00
41202;BME280;26936;50.524;8.684;2023-01-27T08:32:33;100007.53;;;2.43;100.00
41202;BME280;26936;50.524;8.684;2023-01-27T08:34:58;100009.13;;;2.41;100.00
41202;BME280;26936;50.524;8.684;2023-01-27T08:37:23;100009.53;;;2.46;100.00
41202;BME280;26936;50.524;8.684;2023-01-27T08:39:48;100010.34;;;2.47;100.00
41202;BME280;26936;50.524;8.684;2023-01-27T08:42:14;100017.16;;;2.49;100.00
41202;BME280;26936;50.524;8.684;2023-01-27T08:44:39;100013.59;;;2.52;100.00
41202;BME280;26936;50.524;8.684;2023-01-27T08:47:04;100023.53;;;2.53;100.00
41202;BME280;26936;50.524;8.684;2023-01-27T08:49:29;100022.75;;;2.56;100.00
41202;BME280;26936;50.524;8.684;2023-01-27T08:51:55;100032.75;;;2.61;100.00
41202;BME280;26936;50.524;8.684;2023-01-27T08:54:20;100023.56;;;2.57;100.00
41202;BME280;26936;50.524;8.684;2023-01-27T08:56:45;100026.41;;;2.64;100.00
41202;BME280;26936;50.524;8.684;2023-01-27T08:59:10;100038.69;;;2.63;100.00
41202;BME280;26936;50.524;8.684;2023-01-27T09:01:36;100039.50;;;2.63;100.00
41202;BME280;26936;50.524;8.684;2023-01-27T09:04:01;100036.72;;;2.63;100.00
41202;BME280;26936;50.524;8.684;2023-01-27T09:06:27;100047.81;;;2.60;100.00
41202;BME280;26936;50.524;8.684;2023-01-27T09:08:52;100039.53;;;2.67;100.00
41202;BME280;26936;50.524;8.684;2023-01-27T09:11:34;100035.19;;;2.69;100.00
41202;BME280;26936;50.524;8.684;2023-01-27T09:13:59;100041.56;;;2.70;100.00
41202;BME280;26936;50.524;8.684;2023-01-27T09:16:25;100041.19;;;2.75;100.00
41202;BME280;26936;50.524;8.684;2023-01-27T09:18:50;100038.03;;;2.76;100.00
41202;BME280;26936;50.524;8.684;2023-01-27T09:21:16;100037.72;;;2.85;100.00
41202;BME280;26936;50.524;8.684;2023-01-27T09:23:41;100040.41;;;2.78;100.00
41202;BME280;26936;50.524;8.684;2023-01-27T09:26:06;100039.66;;;2.81;100.00
41202;BME280;26936;50.524;8.684;2023-01-27T09:28:31;100037.28;;;2.83;100.00
41202;BME280;26936;50.524;8.684;2023-01-27T09:30:57;100043.69;;;2.87;100.00
41202;BME280;26936;50.524;8.684;2023-01-27T09:33:23;100045.69;;;2.90;100.00
41202;BME280;26936;50.524;8.684;2023-01-27T09:36:03;100043.31;;;2.92;100.00
41202;BME280;26936;50.524;8.684;2023-01-27T09:38:34;100046.94;;;2.96;100.00
41202;BME280;26936;50.524;8.684;2023-01-27T10:00:16;100041.88;;;3.12;100.00
41202;BME280;26936;50.524;8.684;2023-01-27T10:06:02;100045.84;;;3.11;100.00
41202;BME280;26936;50.524;8.684;2023-01-27T10:08:40;100046.28;;;3.13;100.00
41202;BME280;26936;50.524;8.684;2023-01-27T10:11:18;100045.13;;;3.21;100.00
41202;BME280;26936;50.524;8.684;2023-01-27T10:22:27;100047.16;;;3.28;100.00
41202;BME280;26936;50.524;8.684;2023-01-27T10:25:11;100045.97;;;3.29;100.00
41202;BME280;26936;50.524;8.684;2023-01-27T10:27:52;100049.94;;;3.28;100.00
41202;BME280;26936;50.524;8.684;2023-01-27T10:30:36;100037.63;;;3.29;100.00
41202;BME280;26936;50.524;8.684;2023-01-27T10:50:43;100049.22;;;3.41;100.00
41202;BME280;26936;50.524;8.684;2023-01-27T10:53:24;100056.78;;;3.41;100.00
41202;BME280;26936;50.524;8.684;2023-01-27T10:58:43;100058.38;;;3.42;100.00
41202;BME280;26936;50.524;8.684;2023-01-27T11:01:13;100068.31;;;3.39;100.00
41202;BME280;26936;50.524;8.684;2023-01-27T11:03:56;100068.31;;;3.39;100.00
41202;BME280;26936;50.524;8.684;2023-01-27T11:06:27;100063.94;;;3.42;100.00
41202;BME280;26936;50.524;8.684;2023-01-27T11:09:24;100068.72;;;3.41;100.00
41202;BME280;26936;50.524;8.684;2023-01-27T11:11:50;100075.53;;;3.47;100.00
41202;BME280;26936;50.524;8.684;2023-01-27T11:14:26;100063.22;;;3.52;100.00
41202;BME280;26936;50.524;8.684;2023-01-27T11:17:00;100066.81;;;3.56;100.00
41202;BME280;26936;50.524;8.684;2023-01-27T11:19:41;100070.41;;;3.60;100.00
41202;BME280;26936;50.524;8.684;2023-01-27T11:22:20;100072.84;;;3.65;100.00
41202;BME280;26936;50.524;8.684;2023-01-27T11:24:52;100074.78;;;3.54;100.00
41202;BME280;26936;50.524;8.684;2023-01-27T11:30:20;100071.25;;;3.67;100.00
41202;BME280;26936;50.524;8.684;2023-01-27T11:33:04;100066.84;;;3.63;100.00
41202;BME280;26936;50.524;8.684;2023-01-27T11:35:34;100070.84;;;3.65;100.00
41202;BME280;26936;50.524;8.684;2023-01-27T11:37:59;100064.47;;;3.65;100.00
41202;BME280;26936;50.524;8.684;2023-01-27T11:40:34;100066.06;;;3.66;100.00
41202;BME280;26936;50.524;8.684;2023-01-27T11:43:03;100067.28;;;3.68;100.00
41202;BME280;26936;50.524;8.684;2023-01-27T11:45:37;100056.53;;;3.70;100.00
41202;BME280;26936;50.524;8.684;2023-01-27T11:48:06;100054.16;;;3.72;100.00
41202;BME280;26936;50.524;8.684;2023-01-27T11:50:35;100055.00;;;3.80;100.00
41202;BME280;26936;50.524;8.684;2023-01-27T11:55:48;100050.19;;;3.73;100.00
41202;BME280;26936;50.524;8.684;2023-01-27T11:58:18;100040.69;;;3.85;100.00
41202;BME280;26936;50.524;8.684;2023-01-27T12:00:56;100039.47;;;3.82;100.00
41202;BME280;26936;50.524;8.684;2023-01-27T12:03:47;100030.41;;;3.99;100.00
41202;BME280;26936;50.524;8.684;2023-01-27T12:06:19;100031.56;;;3.95;100.00
41202;BME280;26936;50.524;8.684;2023-01-27T12:08:46;100031.59;;;4.02;100.00
41202;BME280;26936;50.524;8.684;2023-01-27T12:11:25;100023.63;;;4.00;100.00
41202;BME280;26936;50.524;8.684;2023-01-27T12:13:57;100032.41;;;4.02;100.00
41202;BME280;26936;50.524;8.684;2023-01-27T12:16:26;100023.63;;;4.00;100.00
41202;BME280;26936;50.524;8.684;2023-01-27T12:19:04;100034.72;;;3.90;100.00
41202;BME280;26936;50.524;8.684;2023-01-27T12:21:46;100021.22;;;3.95;100.00
41202;BME280;26936;50.524;8.684;2023-01-27T12:24:37;100030.34;;;3.89;100.00
41202;BME280;26936;50.524;8.684;2023-01-27T12:27:05;100022.41;;;3.94;100.00
41202;BME280;26936;50.524;8.684;2023-01-27T12:29:39;100025.19;;;3.87;100.00
41202;BME280;26936;50.524;8.684;2023-01-27T12:32:13;100024.00;;;3.92;100.00
41202;BME280;26936;50.524;8.684;2023-01-27T12:34:43;100020.00;;;3.89;100.00
41202;BME280;26936;50.524;8.684;2023-01-27T12:37:34;100015.59;;;3.78;100.00
41202;BME280;26936;50.524;8.684;2023-01-27T12:40:03;100016.00;;;3.87;100.00
41202;BME280;26936;50.524;8.684;2023-01-27T12:42:34;100002.06;;;3.80;100.00
41202;BME280;26936;50.524;8.684;2023-01-27T12:45:42;100007.25;;;3.81;100.00
41202;BME280;26936;50.524;8.684;2023-01-27T12:50:34;100011.66;;;3.96;100.00
41202;BME280;26936;50.524;8.684;2023-01-27T12:53:12;100003.69;;;3.95;100.00
41202;BME280;26936;50.524;8.684;2023-01-27T12:58:04;100007.63;;;3.80;100.00
41202;BME280;26936;50.524;8.684;2023-01-27T13:00:31;100009.22;;;3.77;100.00
41202;BME280;26936;50.524;8.684;2023-01-27T13:03:05;100004.44;;;3.74;100.00
41202;BME280;26936;50.524;8.684;2023-01-27T13:05:36;100010.84;;;3.85;100.00
41202;BME280;26936;50.524;8.684;2023-01-27T13:08:02;100005.28;;;3.92;100.00
41202;BME280;26936;50.524;8.684;2023-01-27T13:10:27;100016.44;;;3.96;100.00
41202;BME280;26936;50.524;8.684;2023-01-27T13:12:56;100007.72;;;4.04;100.00
41202;BME280;26936;50.524;8.684;2023-01-27T13:15:27;100012.09;;;4.09;100.00
41202;BME280;26936;50.524;8.684;2023-01-27T13:17:55;100012.09;;;4.05;100.00
41202;BME280;26936;50.524;8.684;2023-01-27T13:20:46;100019.66;;;3.98;100.00
41202;BME280;26936;50.524;8.684;2023-01-27T13:23:25;100015.25;;;4.00;100.00
41202;BME280;26936;50.524;8.684;2023-01-27T13:34:44;100030.78;;;4.01;100.00
41202;BME280;26936;50.524;8.684;2023-01-27T13:36:51;100032.41;;;4.02;100.00
41202;BME280;26936;50.524;8.684;2023-01-27T13:42:38;100030.75;;;3.91;100.00
41202;BME280;26936;50.524;8.684;2023-01-27T13:45:03;100034.75;;;3.93;100.00
41202;BME280;26936;50.524;8.684;2023-01-27T13:47:57;100033.97;;;4.03;100.00
41202;BME280;26936;50.524;8.684;2023-01-27T13:50:36;100030.81;;;4.08;100.00
41202;BME280;26936;50.524;8.684;2023-01-27T13:53:04;100033.19;;;4.03;100.00
41202;BME280;26936;50.524;8.684;2023-01-27T13:55:47;100028.00;;;4.05;100.00
41202;BME280;26936;50.524;8.684;2023-01-27T14:04:19;100027.22;;;4.08;100.00
41202;BME280;26936;50.524;8.684;2023-01-27T14:07:03;100022.81;;;3.96;100.00
41202;BME280;26936;50.524;8.684;2023-01-27T14:09:53;100025.22;;;4.05;100.00
41202;BME280;26936;50.524;8.684;2023-01-27T14:14:59;100022.44;;;4.05;100.00
41202;BME280;26936;50.524;8.684;2023-01-27T14:17:35;100036.75;;;4.00;100.00
41202;BME280;26936;50.524;8.684;2023-01-27T14:23:15;100038.75;;;4.03;100.00
41202;BME280;26936;50.524;8.684;2023-01-27T14:28:29;100034.44;;;4.12;100.00
41202;BME280;26936;50.524;8.684;2023-01-27T14:31:01;100035.59;;;4.04;100.00
41202;BME280;26936;50.524;8.684;2023-01-27T14:41:49;100051.16;;;4.12;100.00
41202;BME280;26936;50.524;8.684;2023-01-27T14:56:00;100061.03;;;3.96;100.00
41202;BME280;26936;50.524;8.684;2023-01-27T15:06:23;100077.72;;;3.89;100.00
41202;BME280;26936;50.524;8.684;2023-01-27T15:09:18;100072.94;;;3.86;100.00
41202;BME280;26936;50.524;8.684;2023-01-27T15:12:11;100083.28;;;3.89;100.00